Time;durP1;ratioP1;P1;durP2;ratioP2;P2;SDS_P1;SDS_P2;PMS_P1;PMS_P2;Temp;Humidity;BMP_temperature;BMP_pressure;BME280_temperature;BME280_humidity;BME280_pressure;Samples;Min_cycle;Max_cycle;Signal;HPM_P1;HPM_P2
2023/12/26 00:00:33;;;;;;;4.40;1.20;;;12.60;99.90;;;;;;5036220;28;20167;-74
2023/12/26 00:03:01;;;;;;;3.28;0.90;;;12.60;99.90;;;;;;5034653;28;20083;-75
2023/12/26 00:05:27;;;;;;;0.75;0.65;;;12.50;99.90;;;;;;5033409;28;20126;-74
2023/12/26 00:07:53;;;;;;;1.95;0.85;;;12.50;99.90;;;;;;5034408;28;20480;-74
2023/12/26 00:10:18;;;;;;;0.93;0.80;;;12.50;99.90;;;;;;5032221;28;20501;-75
2023/12/26 00:12:44;;;;;;;2.70;0.80;;;12.50;99.90;;;;;;5032135;28;20489;-75
2023/12/26 00:15:10;;;;;;;2.22;1.00;;;12.50;99.90;;;;;;5034304;28;20151;-75
2023/12/26 00:17:35;;;;;;;1.10;0.85;;;12.50;99.90;;;;;;5037073;28;20092;-75
2023/12/26 00:20:04;;;;;;;1.75;0.90;;;12.40;99.90;;;;;;5033854;28;20499;-75
2023/12/26 00:22:30;;;;;;;4.30;1.40;;;12.40;99.90;;;;;;5035799;28;20397;-77
2023/12/26 00:24:56;;;;;;;1.25;1.15;;;12.40;99.90;;;;;;5036695;28;20021;-78
2023/12/26 00:27:22;;;;;;;1.55;0.98;;;12.40;99.90;;;;;;5036462;28;20065;-77
2023/12/26 00:29:48;;;;;;;4.25;1.15;;;12.40;99.90;;;;;;5032889;28;20096;-75
2023/12/26 00:32:15;;;;;;;2.33;1.15;;;12.40;99.90;;;;;;5035046;28;20370;-75
2023/12/26 00:34:40;;;;;;;1.90;1.80;;;12.40;99.90;;;;;;5033118;28;20017;-75
2023/12/26 00:37:07;;;;;;;5.80;1.40;;;12.40;99.90;;;;;;5033609;28;20367;-75
2023/12/26 00:39:34;;;;;;;4.05;1.92;;;12.30;99.90;;;;;;5031233;28;20033;-75
2023/12/26 00:42:00;;;;;;;3.72;1.55;;;12.40;99.90;;;;;;5036103;28;20029;-75
2023/12/26 00:44:25;;;;;;;3.30;1.50;;;12.30;99.90;;;;;;5037463;28;20025;-75
2023/12/26 00:46:51;;;;;;;1.63;1.17;;;12.20;99.90;;;;;;5039916;28;20417;-75
2023/12/26 00:49:17;;;;;;;1.60;1.25;;;12.20;99.90;;;;;;5043543;28;20068;-74
2023/12/26 00:51:43;;;;;;;1.88;1.50;;;12.30;99.90;;;;;;5040374;28;20367;-75
2023/12/26 00:54:08;;;;;;;1.75;1.52;;;12.30;99.90;;;;;;5043567;28;20028;-75
2023/12/26 00:56:34;;;;;;;1.90;1.27;;;12.20;99.90;;;;;;5044446;28;20324;-75
2023/12/26 00:59:00;;;;;;;1.35;1.25;;;12.20;99.90;;;;;;5044965;28;20036;-77
2023/12/26 01:01:25;;;;;;;1.70;1.35;;;12.20;99.90;;;;;;5046369;28;20033;-75
2023/12/26 01:03:51;;;;;;;1.52;1.20;;;12.20;99.90;;;;;;5047279;28;20116;-77
2023/12/26 01:06:17;;;;;;;2.42;1.10;;;12.10;99.90;;;;;;5042183;28;20492;-78
2023/12/26 01:08:43;;;;;;;2.55;1.25;;;12.10;99.90;;;;;;5042778;28;20063;-76
2023/12/26 01:11:08;;;;;;;1.95;1.23;;;12.10;99.90;;;;;;5044710;28;20026;-76
2023/12/26 01:13:34;;;;;;;2.15;0.85;;;12.10;99.90;;;;;;5040659;28;20090;-75
2023/12/26 01:16:04;;;;;;;3.53;1.20;;;12.10;99.90;;;;;;5040714;28;20021;-75
2023/12/26 01:18:30;;;;;;;1.70;0.93;;;12.10;99.90;;;;;;5041070;28;20033;-77
2023/12/26 01:20:57;;;;;;;2.70;1.00;;;12.10;99.90;;;;;;5046711;28;20046;-75
2023/12/26 01:23:23;;;;;;;2.53;1.00;;;12.10;99.90;;;;;;5040236;28;20045;-79
2023/12/26 01:25:49;;;;;;;3.38;0.80;;;12.10;99.90;;;;;;5046096;28;20024;-79
2023/12/26 01:28:15;;;;;;;1.98;0.90;;;12.10;99.90;;;;;;5052780;28;20079;-77
2023/12/26 01:30:41;;;;;;;1.10;0.70;;;12.00;99.90;;;;;;5052037;28;20024;-75
2023/12/26 01:33:08;;;;;;;4.55;0.70;;;12.00;99.90;;;;;;5051600;28;20028;-77
2023/12/26 01:35:33;;;;;;;2.35;0.70;;;12.00;99.90;;;;;;5041442;28;20026;-83
2023/12/26 01:37:59;;;;;;;0.65;0.60;;;12.00;99.90;;;;;;5043351;28;20111;-75
2023/12/26 01:40:25;;;;;;;1.48;0.60;;;12.00;99.90;;;;;;5038636;28;20433;-76
2023/12/26 01:42:51;;;;;;;3.10;1.10;;;12.00;99.90;;;;;;5039741;28;20397;-77
2023/12/26 01:45:17;;;;;;;1.75;0.63;;;12.00;99.90;;;;;;5041177;28;20075;-75
2023/12/26 01:47:45;;;;;;;1.58;0.95;;;12.00;99.90;;;;;;5041493;28;20067;-75
2023/12/26 01:50:13;;;;;;;1.13;0.75;;;12.00;99.90;;;;;;5039798;28;20128;-76
2023/12/26 01:52:40;;;;;;;1.50;0.70;;;12.00;99.90;;;;;;5041997;28;20550;-86
2023/12/26 01:55:11;;;;;;;2.13;0.80;;;12.00;99.90;;;;;;5041395;28;20017;-78
2023/12/26 01:57:39;;;;;;;1.48;0.75;;;12.00;99.90;;;;;;5050276;28;20033;-75
2023/12/26 02:00:07;;;;;;;0.80;0.60;;;11.90;99.90;;;;;;5043270;28;20057;-75
2023/12/26 02:02:33;;;;;;;1.70;0.90;;;12.00;99.90;;;;;;5047164;28;20021;-75
2023/12/26 02:05:00;;;;;;;1.70;0.98;;;11.90;99.90;;;;;;5035334;28;20097;-74
2023/12/26 02:07:26;;;;;;;0.77;0.77;;;12.00;99.90;;;;;;5049779;28;20017;-76
2023/12/26 02:09:52;;;;;;;1.42;0.95;;;12.10;99.90;;;;;;5043045;28;20032;-77
2023/12/26 02:12:18;;;;;;;2.03;1.20;;;12.10;99.90;;;;;;5041507;28;20474;-76
2023/12/26 02:14:45;;;;;;;1.52;1.25;;;12.10;99.90;;;;;;5040499;28;20021;-75
2023/12/26 02:17:18;;;;;;;2.15;1.15;;;12.10;99.90;;;;;;5048172;28;20036;-75
2023/12/26 02:19:45;;;;;;;1.50;1.30;;;12.10;99.90;;;;;;5039928;28;20029;-75
2023/12/26 02:22:11;;;;;;;2.63;1.10;;;12.10;99.90;;;;;;5046091;28;20030;-77
2023/12/26 02:24:42;;;;;;;4.20;1.42;;;12.10;99.90;;;;;;5042569;28;20033;-76
2023/12/26 02:27:12;;;;;;;2.63;1.40;;;12.00;99.90;;;;;;5043270;28;20087;-75
2023/12/26 02:29:38;;;;;;;3.25;1.50;;;12.10;99.90;;;;;;5043196;28;20360;-77
2023/12/26 02:32:05;;;;;;;1.60;1.30;;;12.10;99.90;;;;;;5043826;28;20021;-75
2023/12/26 02:34:31;;;;;;;3.03;1.40;;;12.10;99.90;;;;;;5043534;28;20394;-75
2023/12/26 02:36:57;;;;;;;2.10;1.58;;;12.10;99.90;;;;;;5040131;28;20025;-76
2023/12/26 02:39:22;;;;;;;3.17;1.42;;;12.20;99.90;;;;;;5046424;28;20466;-75
2023/12/26 02:41:48;;;;;;;4.57;2.05;;;12.20;99.90;;;;;;5045366;28;20095;-75
2023/12/26 02:44:14;;;;;;;2.38;1.55;;;12.10;99.90;;;;;;5044812;28;20025;-76
2023/12/26 02:46:40;;;;;;;5.43;1.85;;;12.10;99.90;;;;;;5040164;28;20043;-74
2023/12/26 02:49:05;;;;;;;4.30;1.55;;;12.10;99.90;;;;;;5052009;28;20497;-83
2023/12/26 02:51:31;;;;;;;2.20;1.13;;;12.20;99.90;;;;;;5040681;28;20033;-75
2023/12/26 02:53:57;;;;;;;4.07;1.50;;;12.10;99.90;;;;;;5044789;28;20103;-75
2023/12/26 02:56:22;;;;;;;4.05;1.45;;;12.10;99.90;;;;;;5042926;28;20068;-76
2023/12/26 02:58:48;;;;;;;2.00;1.40;;;12.00;99.90;;;;;;5041501;28;20032;-76
2023/12/26 03:01:14;;;;;;;4.50;1.63;;;12.00;99.90;;;;;;5043644;28;20032;-76
2023/12/26 03:03:40;;;;;;;6.55;1.95;;;12.00;99.90;;;;;;5040798;28;20039;-75
2023/12/26 03:06:07;;;;;;;2.50;1.83;;;12.00;99.90;;;;;;5040244;28;20036;-75
2023/12/26 03:08:33;;;;;;;3.58;1.60;;;12.00;99.90;;;;;;5048535;28;20045;-77
2023/12/26 03:10:59;;;;;;;3.08;1.48;;;12.00;99.90;;;;;;5038745;28;20114;-76
2023/12/26 03:13:24;;;;;;;2.67;1.63;;;12.00;99.90;;;;;;5028256;28;20030;-76
2023/12/26 03:15:50;;;;;;;3.35;1.73;;;12.10;99.90;;;;;;5020868;28;20112;-75
2023/12/26 03:18:16;;;;;;;5.15;1.73;;;12.00;99.90;;;;;;5038062;28;20029;-75
2023/12/26 03:20:41;;;;;;;3.20;1.70;;;12.10;99.90;;;;;;5038317;28;20032;-75
2023/12/26 03:23:07;;;;;;;2.78;1.33;;;12.10;99.90;;;;;;5041465;28;20441;-75
2023/12/26 03:25:33;;;;;;;3.63;1.40;;;12.10;99.90;;;;;;5042732;28;20053;-78
2023/12/26 03:27:58;;;;;;;2.92;1.58;;;12.10;99.90;;;;;;5043239;28;20021;-79
2023/12/26 03:30:24;;;;;;;2.50;1.40;;;12.00;99.90;;;;;;5049890;28;20024;-75
2023/12/26 03:32:50;;;;;;;4.85;1.30;;;12.10;99.90;;;;;;5048510;28;20056;-76
2023/12/26 03:35:16;;;;;;;3.83;1.60;;;12.20;99.90;;;;;;5048432;28;20029;-76
2023/12/26 03:37:41;;;;;;;2.40;1.55;;;12.20;99.90;;;;;;5047719;28;20063;-75
2023/12/26 03:40:08;;;;;;;3.58;1.70;;;12.10;99.90;;;;;;5050956;28;20444;-78
2023/12/26 03:42:34;;;;;;;3.60;1.63;;;12.10;99.90;;;;;;5049528;28;20141;-78
2023/12/26 03:45:00;;;;;;;2.67;1.33;;;12.10;99.90;;;;;;5040425;28;20037;-77
2023/12/26 03:47:25;;;;;;;4.90;1.45;;;12.00;99.90;;;;;;5045495;28;20026;-76
2023/12/26 03:49:52;;;;;;;1.65;1.45;;;12.00;99.90;;;;;;5043070;28;20061;-77
2023/12/26 03:52:17;;;;;;;3.53;1.50;;;12.00;99.90;;;;;;5044171;28;20095;-75
2023/12/26 03:54:43;;;;;;;3.70;1.88;;;12.10;99.90;;;;;;5044401;28;20482;-76
2023/12/26 03:57:09;;;;;;;4.15;1.90;;;12.00;99.90;;;;;;5040416;28;20025;-75
2023/12/26 03:59:34;;;;;;;5.60;1.80;;;12.00;99.90;;;;;;5045671;28;20025;-76
2023/12/26 04:02:01;;;;;;;3.42;1.90;;;12.00;99.90;;;;;;5045878;28;20076;-75
2023/12/26 04:04:27;;;;;;;4.50;2.00;;;12.00;99.90;;;;;;5042037;28;20231;-74
2023/12/26 04:06:53;;;;;;;4.65;2.20;;;12.00;99.90;;;;;;5039370;28;20029;-75
2023/12/26 04:09:19;;;;;;;4.75;2.40;;;11.90;99.90;;;;;;5050193;28;20386;-75
2023/12/26 04:11:45;;;;;;;3.90;2.38;;;11.90;99.90;;;;;;5037109;28;20048;-77
2023/12/26 04:14:11;;;;;;;3.92;2.40;;;11.90;99.90;;;;;;5040133;28;20488;-78
2023/12/26 04:16:37;;;;;;;2.80;2.58;;;11.90;99.90;;;;;;5046063;28;20014;-76
2023/12/26 04:19:03;;;;;;;2.50;2.20;;;11.90;99.90;;;;;;5047477;28;20396;-75
2023/12/26 04:21:28;;;;;;;6.68;2.63;;;11.80;99.90;;;;;;5042255;28;20328;-75
2023/12/26 04:23:54;;;;;;;3.42;2.28;;;11.90;99.90;;;;;;5045321;28;20032;-75
2023/12/26 04:26:20;;;;;;;5.10;2.00;;;11.80;99.90;;;;;;5038183;28;20057;-75
2023/12/26 04:28:45;;;;;;;3.95;2.42;;;11.90;99.90;;;;;;5037915;28;20117;-75
2023/12/26 04:31:11;;;;;;;3.92;3.00;;;11.90;99.90;;;;;;5046741;28;20033;-75
2023/12/26 04:33:37;;;;;;;7.00;2.38;;;12.00;99.90;;;;;;5045976;28;20104;-75
2023/12/26 04:36:05;;;;;;;5.03;2.45;;;12.00;99.90;;;;;;5040683;28;20556;-75
2023/12/26 04:38:31;;;;;;;4.07;2.20;;;12.00;99.90;;;;;;5040156;28;20026;-75
2023/12/26 04:40:57;;;;;;;5.82;2.75;;;12.00;99.90;;;;;;5041805;28;20120;-76
2023/12/26 04:43:23;;;;;;;5.68;3.10;;;12.00;99.90;;;;;;5039933;28;20279;-77
2023/12/26 04:45:48;;;;;;;9.25;3.08;;;12.00;99.90;;;;;;5041137;28;20037;-75
2023/12/26 04:48:14;;;;;;;4.90;2.60;;;11.90;99.90;;;;;;5040925;28;20030;-75
2023/12/26 04:50:40;;;;;;;4.50;2.47;;;11.90;99.90;;;;;;5039088;28;20087;-75
2023/12/26 04:53:06;;;;;;;7.60;2.97;;;11.90;99.90;;;;;;5045627;28;20358;-75
2023/12/26 04:55:32;;;;;;;9.20;2.63;;;12.00;99.90;;;;;;5044507;28;20026;-74
2023/12/26 04:57:58;;;;;;;5.93;3.15;;;11.90;99.90;;;;;;5044338;28;20355;-76
2023/12/26 05:00:24;;;;;;;4.70;3.40;;;12.00;99.90;;;;;;5042975;28;20017;-76
2023/12/26 05:02:50;;;;;;;9.93;3.65;;;12.00;99.90;;;;;;5046300;28;20405;-74
2023/12/26 05:05:16;;;;;;;5.95;3.60;;;12.00;99.90;;;;;;5043263;28;20009;-75
2023/12/26 05:07:42;;;;;;;7.55;3.30;;;11.90;99.90;;;;;;5047685;28;20033;-76
2023/12/26 05:10:08;;;;;;;6.80;3.30;;;11.90;99.90;;;;;;5039854;28;20018;-76
2023/12/26 05:12:33;;;;;;;6.50;3.03;;;11.90;99.90;;;;;;5043790;28;20044;-76
2023/12/26 05:14:59;;;;;;;10.85;3.05;;;12.00;99.90;;;;;;5042821;28;20378;-76
2023/12/26 05:17:25;;;;;;;5.25;2.95;;;12.00;99.90;;;;;;5042111;28;20033;-77
2023/12/26 05:19:50;;;;;;;8.93;3.28;;;12.00;99.90;;;;;;5046741;28;20474;-74
2023/12/26 05:22:16;;;;;;;7.13;3.25;;;12.00;99.90;;;;;;5047045;28;20474;-75
2023/12/26 05:24:42;;;;;;;4.88;3.60;;;12.00;99.90;;;;;;5046051;28;20485;-76
2023/12/26 05:27:08;;;;;;;10.85;3.70;;;12.00;99.90;;;;;;5043841;28;20029;-77
2023/12/26 05:29:34;;;;;;;8.48;3.20;;;12.00;99.90;;;;;;5042655;28;20057;-75
2023/12/26 05:31:59;;;;;;;5.38;2.70;;;12.00;99.90;;;;;;5045141;28;20504;-75
2023/12/26 05:34:25;;;;;;;9.57;3.60;;;12.20;99.90;;;;;;5045728;28;20026;-76
2023/12/26 05:36:51;;;;;;;10.02;3.70;;;12.20;99.90;;;;;;5047530;28;20809;-75
2023/12/26 05:39:16;;;;;;;12.02;3.25;;;12.20;99.90;;;;;;5040875;28;20024;-75
2023/12/26 05:41:42;;;;;;;5.68;2.63;;;12.10;99.90;;;;;;5044064;28;20386;-77
2023/12/26 05:44:08;;;;;;;8.38;2.70;;;12.10;99.90;;;;;;5043264;28;20030;-75
2023/12/26 05:46:34;;;;;;;10.73;2.85;;;11.90;99.90;;;;;;5041824;28;20131;-75
2023/12/26 05:48:59;;;;;;;7.63;2.10;;;12.00;99.90;;;;;;5045509;28;20034;-74
2023/12/26 05:51:26;;;;;;;6.25;2.70;;;12.10;99.90;;;;;;5037972;28;20041;-75
2023/12/26 05:53:52;;;;;;;7.75;1.95;;;12.10;99.90;;;;;;5040615;28;20056;-75
2023/12/26 05:56:18;;;;;;;7.85;2.30;;;12.10;99.90;;;;;;5045963;28;20443;-79
2023/12/26 05:58:44;;;;;;;11.18;2.80;;;12.00;99.90;;;;;;5050709;28;20467;-75
2023/12/26 06:01:10;;;;;;;7.72;2.92;;;11.90;99.90;;;;;;5041145;28;20036;-79
2023/12/26 06:03:37;;;;;;;8.70;3.30;;;11.80;99.90;;;;;;5044844;28;20032;-75
2023/12/26 06:06:13;;;;;;;10.80;3.25;;;11.90;99.90;;;;;;5039543;28;20112;-75
2023/12/26 06:08:40;;;;;;;8.45;3.03;;;11.80;99.90;;;;;;5043536;28;20053;-75
2023/12/26 06:11:06;;;;;;;8.40;3.25;;;11.90;99.90;;;;;;5050431;28;20100;-75
2023/12/26 06:13:31;;;;;;;11.77;3.97;;;11.90;99.90;;;;;;5044210;28;20115;-75
2023/12/26 06:15:57;;;;;;;8.70;3.08;;;11.90;99.90;;;;;;5042445;28;20377;-74
2023/12/26 06:18:23;;;;;;;9.65;2.65;;;11.90;99.90;;;;;;5043797;28;20056;-75
2023/12/26 06:20:49;;;;;;;5.97;2.33;;;11.80;99.90;;;;;;5037240;28;20030;-76
2023/12/26 06:23:14;;;;;;;7.88;2.65;;;11.90;99.90;;;;;;5042107;28;20548;-76
2023/12/26 06:25:40;;;;;;;7.85;3.00;;;12.00;99.90;;;;;;5038239;28;20017;-76
2023/12/26 06:28:06;;;;;;;9.70;2.63;;;11.90;99.90;;;;;;5039725;28;20037;-75
2023/12/26 06:30:31;;;;;;;7.47;2.28;;;11.90;99.90;;;;;;5036061;28;20101;-75
2023/12/26 06:32:57;;;;;;;8.13;1.98;;;11.80;99.90;;;;;;5040274;28;20470;-79
2023/12/26 06:35:23;;;;;;;6.38;2.00;;;11.70;99.90;;;;;;5046129;28;20029;-75
2023/12/26 06:37:49;;;;;;;9.93;2.10;;;11.70;99.90;;;;;;5040764;28;20029;-75
2023/12/26 06:40:15;;;;;;;4.88;1.33;;;11.60;99.90;;;;;;5039278;28;20030;-75
2023/12/26 06:42:41;;;;;;;5.68;1.20;;;11.60;99.90;;;;;;5040466;28;20040;-76
2023/12/26 06:45:07;;;;;;;6.03;1.52;;;11.60;99.90;;;;;;5043805;28;20699;-75
2023/12/26 06:47:33;;;;;;;5.93;1.30;;;11.60;99.90;;;;;;5042311;28;20043;-76
2023/12/26 06:49:59;;;;;;;11.50;1.52;;;11.50;99.90;;;;;;5043809;28;20383;-75
2023/12/26 06:52:24;;;;;;;10.00;2.22;;;11.50;99.90;;;;;;5034120;28;20026;-76
2023/12/26 06:54:50;;;;;;;6.50;1.70;;;11.50;99.90;;;;;;5040987;28;20025;-75
2023/12/26 06:57:16;;;;;;;11.07;1.88;;;11.50;99.90;;;;;;5041961;28;20025;-75
2023/12/26 06:59:47;;;;;;;9.50;1.45;;;11.50;99.90;;;;;;5046173;28;20431;-75
2023/12/26 07:02:13;;;;;;;12.75;1.83;;;11.40;99.90;;;;;;5045741;28;20048;-74
2023/12/26 07:04:43;;;;;;;9.23;1.42;;;11.40;99.90;;;;;;5050637;28;20071;-75
2023/12/26 07:07:08;;;;;;;8.13;1.30;;;11.50;99.90;;;;;;5041005;28;20503;-74
2023/12/26 07:09:34;;;;;;;7.72;2.00;;;11.40;99.90;;;;;;5044729;28;20029;-75
2023/12/26 07:12:00;;;;;;;4.63;1.20;;;11.30;99.90;;;;;;5046882;28;20029;-74
2023/12/26 07:14:28;;;;;;;7.68;1.27;;;11.30;99.90;;;;;;5039739;28;20027;-76
2023/12/26 07:16:53;;;;;;;6.72;1.52;;;11.30;99.90;;;;;;5045045;28;20033;-74
2023/12/26 07:19:19;;;;;;;7.22;1.73;;;11.40;99.90;;;;;;5046582;28;20454;-74
2023/12/26 07:21:45;;;;;;;8.85;2.17;;;11.30;99.90;;;;;;5044228;28;20068;-74
2023/12/26 07:24:11;;;;;;;11.15;1.80;;;11.40;99.90;;;;;;5046534;28;20469;-75
2023/12/26 07:26:36;;;;;;;12.02;1.75;;;11.30;99.90;;;;;;5046188;28;20030;-75
2023/12/26 07:29:02;;;;;;;6.75;1.70;;;11.30;99.90;;;;;;5039563;28;20025;-75
2023/12/26 07:31:29;;;;;;;7.95;1.58;;;11.20;99.90;;;;;;5044775;28;20081;-75
2023/12/26 07:33:55;;;;;;;9.02;1.92;;;11.20;99.90;;;;;;5047874;28;20124;-75
2023/12/26 07:36:21;;;;;;;7.70;1.60;;;11.30;99.90;;;;;;5049313;28;20060;-75
2023/12/26 07:38:47;;;;;;;7.25;1.65;;;11.20;99.90;;;;;;5044442;28;20415;-74
2023/12/26 07:41:12;;;;;;;11.13;1.42;;;11.20;99.90;;;;;;5041476;28;20140;-74
2023/12/26 07:43:38;;;;;;;11.02;1.67;;;11.10;99.90;;;;;;5051166;28;20489;-75
2023/12/26 07:46:07;;;;;;;10.43;2.17;;;11.20;99.90;;;;;;5042304;28;20502;-74
2023/12/26 07:48:33;;;;;;;6.65;1.40;;;11.20;99.90;;;;;;5034722;28;20379;-75
2023/12/26 07:50:58;;;;;;;10.88;1.90;;;11.20;99.90;;;;;;5043022;28;20025;-74
2023/12/26 07:53:24;;;;;;;10.70;1.83;;;11.20;99.90;;;;;;5048027;28;20381;-75
2023/12/26 07:55:50;;;;;;;12.40;2.10;;;11.30;99.90;;;;;;5051748;28;20029;-75
2023/12/26 07:58:16;;;;;;;8.13;1.88;;;11.30;99.90;;;;;;5049309;28;20036;-75
2023/12/26 08:00:43;;;;;;;11.80;2.13;;;11.20;99.90;;;;;;5050740;28;20405;-75
2023/12/26 08:03:09;;;;;;;8.93;1.90;;;11.30;99.90;;;;;;5045336;28;20041;-75
2023/12/26 08:05:34;;;;;;;13.55;2.17;;;11.30;99.90;;;;;;5049653;28;20426;-76
2023/12/26 08:08:00;;;;;;;7.88;1.80;;;11.20;99.90;;;;;;5046139;28;20112;-74
2023/12/26 08:10:26;;;;;;;9.48;2.38;;;11.00;99.90;;;;;;5046494;28;20025;-75
2023/12/26 08:12:52;;;;;;;9.70;2.53;;;10.90;99.90;;;;;;5045598;28;20033;-76
2023/12/26 08:15:18;;;;;;;8.75;2.30;;;10.80;99.90;;;;;;5042102;28;20315;-75
2023/12/26 08:17:43;;;;;;;11.60;3.13;;;10.80;99.90;;;;;;5042838;28;20035;-76
2023/12/26 08:20:10;;;;;;;15.73;2.70;;;10.80;99.90;;;;;;5041312;28;20117;-76
2023/12/26 08:22:36;;;;;;;12.68;3.38;;;10.70;99.90;;;;;;5046917;28;20033;-75
2023/12/26 08:25:02;;;;;;;8.90;2.60;;;10.70;99.90;;;;;;5042660;28;20032;-75
2023/12/26 08:27:28;;;;;;;7.93;2.40;;;10.80;99.90;;;;;;5043916;28;20029;-76
2023/12/26 08:29:53;;;;;;;12.05;3.70;;;10.80;99.90;;;;;;5044600;28;20031;-76
2023/12/26 08:32:19;;;;;;;11.95;3.20;;;10.90;99.90;;;;;;5040113;28;20347;-75
2023/12/26 08:34:45;;;;;;;12.10;2.97;;;10.90;99.90;;;;;;5039429;28;20026;-76
2023/12/26 08:37:12;;;;;;;11.02;2.67;;;10.90;99.90;;;;;;5047682;28;20071;-75
2023/12/26 08:39:38;;;;;;;13.15;3.28;;;11.00;99.90;;;;;;5043698;28;20068;-76
2023/12/26 08:42:04;;;;;;;12.18;3.20;;;11.00;99.90;;;;;;5046659;28;20051;-76
2023/12/26 08:44:30;;;;;;;7.25;3.08;;;10.90;99.90;;;;;;5039688;28;20032;-76
2023/12/26 08:46:56;;;;;;;11.70;2.55;;;10.80;99.90;;;;;;5047293;28;20086;-75
2023/12/26 08:49:22;;;;;;;20.20;3.92;;;10.90;99.90;;;;;;5038621;28;20494;-75
2023/12/26 08:51:48;;;;;;;14.68;2.72;;;10.90;99.90;;;;;;5041094;28;20045;-75
2023/12/26 08:54:14;;;;;;;16.10;2.85;;;10.90;99.90;;;;;;5045880;28;20025;-75
2023/12/26 08:56:41;;;;;;;8.27;1.95;;;10.80;99.90;;;;;;5045186;28;20127;-76
2023/12/26 08:59:07;;;;;;;13.48;2.50;;;10.80;99.90;;;;;;5042321;28;20032;-76
2023/12/26 09:01:35;;;;;;;10.32;2.22;;;10.80;99.90;;;;;;5042533;28;20139;-75
2023/12/26 09:04:02;;;;;;;19.90;3.03;;;10.90;99.90;;;;;;5043434;28;20036;-74
2023/12/26 09:06:28;;;;;;;10.63;2.20;;;10.90;99.90;;;;;;5044164;28;20494;-75
2023/12/26 09:08:54;;;;;;;10.40;2.17;;;10.90;99.90;;;;;;5045679;28;20060;-75
2023/12/26 09:11:20;;;;;;;11.30;2.15;;;10.80;99.90;;;;;;5052659;28;20462;-75
2023/12/26 09:13:46;;;;;;;15.07;2.45;;;10.80;99.90;;;;;;5047821;28;20665;-76
2023/12/26 09:16:12;;;;;;;16.90;2.75;;;10.90;99.90;;;;;;5042264;28;20026;-76
2023/12/26 09:18:39;;;;;;;19.15;2.70;;;10.80;99.90;;;;;;5046906;28;20059;-76
2023/12/26 09:21:05;;;;;;;25.45;3.50;;;10.90;99.90;;;;;;5040029;28;20025;-76
2023/12/26 09:23:31;;;;;;;16.45;2.83;;;10.90;99.90;;;;;;5038956;28;20092;-76
2023/12/26 09:26:04;;;;;;;12.60;2.58;;;10.90;99.90;;;;;;5044909;28;20021;-76
2023/12/26 09:28:31;;;;;;;12.35;2.25;;;10.80;99.90;;;;;;5040520;28;20144;-77
2023/12/26 09:30:57;;;;;;;22.83;3.55;;;10.90;99.90;;;;;;5045680;28;20025;-75
2023/12/26 09:33:24;;;;;;;10.75;2.97;;;10.90;99.90;;;;;;5041078;28;20083;-77
2023/12/26 09:35:50;;;;;;;8.65;2.40;;;10.90;99.90;;;;;;5041740;28;20521;-75
2023/12/26 09:38:16;;;;;;;8.63;2.00;;;10.90;99.90;;;;;;5039960;28;20105;-77
2023/12/26 09:40:42;;;;;;;10.75;2.33;;;11.00;99.90;;;;;;5045019;28;20029;-77
2023/12/26 09:43:07;;;;;;;10.05;2.58;;;11.00;99.90;;;;;;5045860;28;20051;-75
2023/12/26 09:45:34;;;;;;;12.45;3.03;;;11.20;99.90;;;;;;5039815;28;20021;-74
2023/12/26 09:48:00;;;;;;;13.88;2.90;;;11.00;99.90;;;;;;5036539;28;20031;-77
2023/12/26 09:50:26;;;;;;;14.50;2.40;;;11.10;99.90;;;;;;5042612;28;20029;-77
2023/12/26 09:52:58;;;;;;;11.00;2.78;;;11.10;99.90;;;;;;5040508;28;20036;-77
2023/12/26 09:55:25;;;;;;;13.13;3.15;;;11.20;99.90;;;;;;5037662;28;20102;-77
2023/12/26 09:57:51;;;;;;;16.42;2.88;;;11.20;99.90;;;;;;5041484;28;20043;-76
2023/12/26 10:00:17;;;;;;;16.35;2.60;;;11.20;99.90;;;;;;5048668;28;20568;-76
2023/12/26 10:02:43;;;;;;;12.05;3.08;;;11.10;99.90;;;;;;5042868;28;20087;-76
2023/12/26 10:05:09;;;;;;;12.65;2.20;;;11.00;99.90;;;;;;5040063;28;20466;-76
2023/12/26 10:07:36;;;;;;;14.15;3.08;;;11.10;99.90;;;;;;5048541;28;20028;-76
2023/12/26 10:10:02;;;;;;;12.82;2.90;;;11.00;99.90;;;;;;5051353;28;20025;-74
2023/12/26 10:12:32;;;;;;;12.73;3.10;;;11.00;99.90;;;;;;5042365;28;20025;-74
2023/12/26 10:15:05;;;;;;;15.02;2.47;;;11.00;99.90;;;;;;5045524;28;20025;-73
2023/12/26 10:17:30;;;;;;;;;;;11.00;99.90;;;;;;5039431;28;20021;-74
2023/12/26 10:19:57;;;;;;;7.55;1.92;;;11.10;99.90;;;;;;5047766;28;20331;-74
2023/12/26 10:22:24;;;;;;;7.40;2.33;;;11.00;99.90;;;;;;5037030;28;20029;-73
2023/12/26 10:24:50;;;;;;;10.25;2.47;;;10.80;99.90;;;;;;5041379;28;20064;-73
2023/12/26 10:27:16;;;;;;;9.32;2.10;;;10.90;99.90;;;;;;5045514;28;20052;-73
2023/12/26 10:29:53;;;;;;;9.10;2.67;;;10.80;99.90;;;;;;5034962;28;20025;-73
2023/12/26 10:32:20;;;;;;;12.73;2.33;;;10.80;99.90;;;;;;5042260;28;20025;-73
2023/12/26 10:34:45;;;;;;;17.25;3.63;;;10.90;99.90;;;;;;5049549;28;20052;-74
2023/12/26 10:37:11;;;;;;;13.02;2.72;;;10.90;99.90;;;;;;5045245;28;20088;-78
2023/12/26 10:39:37;;;;;;;11.20;2.70;;;10.80;99.90;;;;;;5046219;28;20585;-74
2023/12/26 10:42:03;;;;;;;14.00;2.58;;;10.90;99.90;;;;;;5043243;28;20075;-71
2023/12/26 10:44:48;;;;;;;14.07;2.67;;;10.80;99.90;;;;;;5052159;28;20424;-71
2023/12/26 10:47:15;;;;;;;15.10;2.20;;;10.90;99.90;;;;;;5046640;28;20140;-71
2023/12/26 10:49:42;;;;;;;10.32;2.35;;;10.90;99.90;;;;;;5052216;28;20025;-73
2023/12/26 10:52:10;;;;;;;13.57;2.45;;;11.00;99.90;;;;;;5047763;28;20088;-71
2023/12/26 10:54:38;;;;;;;9.38;2.35;;;11.00;99.90;;;;;;5045661;28;20025;-72
2023/12/26 10:57:07;;;;;;;12.50;2.42;;;10.90;99.90;;;;;;5043195;28;20039;-71
2023/12/26 10:59:52;;;;;;;10.50;2.67;;;10.90;99.90;;;;;;5051926;28;20087;-74
2023/12/26 11:02:18;;;;;;;13.55;2.20;;;11.00;99.90;;;;;;5053160;28;20416;-73
2023/12/26 11:04:45;;;;;;;11.00;1.77;;;10.90;99.90;;;;;;5049504;28;20036;-74
2023/12/26 11:07:11;;;;;;;17.70;2.15;;;10.90;99.90;;;;;;5047255;28;20099;-74
2023/12/26 11:09:37;;;;;;;12.55;2.47;;;10.90;99.90;;;;;;5043892;28;20381;-74
2023/12/26 11:12:02;;;;;;;14.18;2.50;;;10.90;99.90;;;;;;5047960;28;20529;-74
2023/12/26 11:14:29;;;;;;;6.65;1.98;;;10.90;99.90;;;;;;5049432;28;20074;-74
2023/12/26 11:16:54;;;;;;;13.10;2.55;;;11.00;99.90;;;;;;5044063;28;20041;-73
2023/12/26 11:19:20;;;;;;;21.13;3.17;;;11.00;99.90;;;;;;5053944;28;20067;-74
2023/12/26 11:21:46;;;;;;;8.93;2.80;;;11.00;99.90;;;;;;5043205;28;20375;-74
2023/12/26 11:24:12;;;;;;;12.73;2.75;;;10.90;99.90;;;;;;5044495;28;20083;-73
2023/12/26 11:26:37;;;;;;;12.88;2.63;;;10.90;99.90;;;;;;5054266;28;20079;-74
2023/12/26 11:29:05;;;;;;;13.60;2.72;;;11.00;99.90;;;;;;5054705;28;20056;-74
2023/12/26 11:31:33;;;;;;;14.57;2.42;;;11.00;99.90;;;;;;5049727;28;20009;-71
2023/12/26 11:33:58;;;;;;;9.95;2.13;;;11.00;99.90;;;;;;5051562;28;20033;-73
2023/12/26 11:36:24;;;;;;;15.68;3.47;;;11.10;99.90;;;;;;5044715;28;20024;-74
2023/12/26 11:38:50;;;;;;;12.07;3.30;;;11.10;99.90;;;;;;5051285;28;20822;-73
2023/12/26 11:41:16;;;;;;;17.50;2.50;;;11.10;99.90;;;;;;5048811;28;20033;-74
2023/12/26 11:43:42;;;;;;;12.90;2.95;;;11.10;99.90;;;;;;5045166;28;20116;-71
2023/12/26 11:46:07;;;;;;;14.50;2.22;;;11.20;99.90;;;;;;5044313;28;20464;-72
2023/12/26 11:48:33;;;;;;;13.60;3.10;;;11.10;99.90;;;;;;5012424;28;21287;-74
2023/12/26 11:51:01;;;;;;;12.02;1.95;;;11.20;99.90;;;;;;5033538;28;20461;-71
2023/12/26 11:53:27;;;;;;;14.23;2.60;;;11.20;99.90;;;;;;5035686;28;20111;-71
2023/12/26 11:55:53;;;;;;;13.65;2.50;;;11.20;99.90;;;;;;5037544;28;20482;-72
2023/12/26 11:58:19;;;;;;;18.05;2.92;;;11.20;99.90;;;;;;5033858;28;20116;-71
2023/12/26 12:00:44;;;;;;;9.52;2.95;;;11.30;99.90;;;;;;5034927;28;20025;-77
2023/12/26 12:03:10;;;;;;;16.33;2.63;;;11.20;99.90;;;;;;5036288;28;20068;-71
2023/12/26 12:05:36;;;;;;;12.93;2.17;;;11.20;99.90;;;;;;5034289;28;20394;-73
2023/12/26 12:08:12;;;;;;;12.43;2.30;;;11.20;99.90;;;;;;5038228;28;20033;-73
2023/12/26 12:11:16;;;;;;;11.10;2.58;;;11.20;99.90;;;;;;5036427;28;20025;-72
2023/12/26 12:13:48;;;;;;;12.43;2.50;;;11.20;99.90;;;;;;5040576;28;21448;-73
2023/12/26 12:16:22;;;;;;;20.35;4.93;;;11.10;99.90;;;;;;5037491;28;20289;-75
2023/12/26 12:19:02;;;;;;;15.15;3.17;;;11.20;99.90;;;;;;5034758;28;20055;-73
2023/12/26 12:21:38;;;;;;;9.95;2.08;;;11.20;99.90;;;;;;5038066;28;20061;-73
2023/12/26 12:24:06;;;;;;;16.15;3.78;;;11.20;99.90;;;;;;5034671;28;20032;-74
2023/12/26 12:27:11;;;;;;;18.08;3.30;;;11.10;99.90;;;;;;5037319;28;20021;-75
2023/12/26 12:29:57;;;;;;;11.52;2.75;;;11.20;99.90;;;;;;5035458;28;20299;-77
2023/12/26 12:32:29;;;;;;;13.13;3.38;;;11.20;99.90;;;;;;5037208;28;20056;-73
2023/12/26 12:35:17;;;;;;;15.68;3.45;;;11.20;99.90;;;;;;5034145;28;20104;-73
2023/12/26 12:37:48;;;;;;;15.98;3.40;;;11.30;99.90;;;;;;5036453;28;20025;-73
2023/12/26 12:40:14;;;;;;;12.15;2.78;;;11.40;99.90;;;;;;5033483;28;20021;-71